GLO1878 SBGL-SBRF
Flight info
| Callsign | GLO1878 |
|---|---|
| Flight time | 3h 33m |
| Altitude | 35000 |
| Route | IMBAP UZ42 ANBEX |
| Aircraft | B738/M-SDFGIKLORWX/LB1 |
Departure
| Time | 2026-04-27 16:14 |
|---|---|
| Airport | Rio Galeão – Tom Jobim International Airport (SBGL) |
Arrival
| Time | 2026-04-27 19:47 |
|---|---|
| Airport | Recife/Guararapes - Gilberto Freyre International Airport (SBRF) |
| Time | Latitude | Longitude | Altitude | Speed | Heading |
|---|---|---|---|---|---|
| 2026-04-27 15:59 | -22.81041 | -43.25313 | 25 ft | 0 kts | 93° |
| 2026-04-27 16:07 | -22.81041 | -43.25317 | 25 ft | 3 kts | 93° |
| 2026-04-27 16:08 | -22.81041 | -43.25345 | 25 ft | 4 kts | 81° |
| 2026-04-27 16:08 | -22.81049 | -43.25372 | 30 ft | 4 kts | 54° |
| 2026-04-27 16:08 | -22.81065 | -43.25386 | 25 ft | 2 kts | 0° |
| 2026-04-27 16:08 | -22.81067 | -43.25386 | 25 ft | 1 kts | 360° |
| 2026-04-27 16:10 | -22.81007 | -43.25383 | 25 ft | 12 kts | 8° |
| 2026-04-27 16:11 | -22.80943 | -43.25437 | 25 ft | 13 kts | 295° |
| 2026-04-27 16:11 | -22.80867 | -43.25608 | 25 ft | 12 kts | 303° |
| 2026-04-27 16:12 | -22.80737 | -43.25662 | 25 ft | 13 kts | 34° |
| 2026-04-27 16:12 | -22.80650 | -43.25594 | 26 ft | 17 kts | 35° |
| 2026-04-27 16:12 | -22.80469 | -43.25574 | 25 ft | 14 kts | 331° |
| 2026-04-27 16:13 | -22.80376 | -43.25606 | 25 ft | 14 kts | 9° |
| 2026-04-27 16:13 | -22.80191 | -43.25463 | 25 ft | 17 kts | 38° |
| 2026-04-27 16:13 | -22.80138 | -43.25340 | 25 ft | 32 kts | 73° |
| 2026-04-27 16:14 | -22.79754 | -43.23864 | 28 ft | 163 kts | 73° |
| 2026-04-27 16:14 | -22.79078 | -43.21237 | 1304 ft | 188 kts | 75° |
| 2026-04-27 16:15 | -22.78412 | -43.18102 | 2004 ft | 238 kts | 77° |
| 2026-04-27 16:15 | -22.77612 | -43.14274 | 2781 ft | 274 kts | 76° |
| 2026-04-27 16:16 | -22.76772 | -43.10281 | 4631 ft | 274 kts | 75° |
| 2026-04-27 16:16 | -22.75903 | -43.06174 | 6193 ft | 284 kts | 75° |
| 2026-04-27 16:17 | -22.74947 | -43.01963 | 7731 ft | 291 kts | 65° |
| 2026-04-27 16:17 | -22.71982 | -42.99267 | 9141 ft | 290 kts | 10° |
| 2026-04-27 16:18 | -22.68088 | -43.00086 | 10353 ft | 301 kts | 330° |
| 2026-04-27 16:18 | -22.63887 | -43.01246 | 11078 ft | 334 kts | 11° |
| 2026-04-27 16:19 | -22.61660 | -43.00493 | 11818 ft | 337 kts | 19° |
| 2026-04-27 16:19 | -22.59456 | -42.99596 | 12543 ft | 340 kts | 18° |
| 2026-04-27 16:20 | -22.52548 | -42.97306 | 14398 ft | 353 kts | 12° |
| 2026-04-27 16:20 | -22.50154 | -42.96664 | 15024 ft | 356 kts | 11° |
| 2026-04-27 16:20 | -22.45271 | -42.95432 | 16163 ft | 365 kts | 11° |
| 2026-04-27 16:21 | -22.42785 | -42.94817 | 16752 ft | 368 kts | 10° |
| 2026-04-27 16:21 | -22.35178 | -42.92939 | 17902 ft | 378 kts | 10° |
| 2026-04-27 16:22 | -22.32604 | -42.92369 | 17918 ft | 377 kts | 3° |
| 2026-04-27 16:22 | -22.27466 | -42.92976 | 17943 ft | 372 kts | 347° |
| 2026-04-27 16:22 | -22.24911 | -42.93449 | 17931 ft | 373 kts | 348° |
| 2026-04-27 16:23 | -22.22345 | -42.93897 | 17936 ft | 373 kts | 348° |
| 2026-04-27 16:23 | -22.17189 | -42.94606 | 17940 ft | 377 kts | 1° |
| 2026-04-27 16:23 | -22.14603 | -42.94014 | 17993 ft | 386 kts | 20° |
| 2026-04-27 16:24 | -22.12240 | -42.92589 | 18497 ft | 391 kts | 30° |
| 2026-04-27 16:24 | -22.08456 | -42.89936 | 19554 ft | 391 kts | 31° |
| 2026-04-27 16:25 | -22.03870 | -42.86679 | 20470 ft | 399 kts | 30° |
| 2026-04-27 16:25 | -21.99185 | -42.83397 | 21413 ft | 405 kts | 30° |
| 2026-04-27 16:26 | -21.94433 | -42.80098 | 22425 ft | 407 kts | 30° |
| 2026-04-27 16:26 | -21.89624 | -42.76771 | 23205 ft | 414 kts | 30° |
| 2026-04-27 16:27 | -21.84782 | -42.73425 | 23966 ft | 419 kts | 30° |
| 2026-04-27 16:27 | -21.77332 | -42.68279 | 25150 ft | 424 kts | 30° |
| 2026-04-27 16:28 | -21.72379 | -42.64861 | 25919 ft | 427 kts | 30° |
| 2026-04-27 16:28 | -21.67355 | -42.61396 | 26654 ft | 431 kts | 29° |
| 2026-04-27 16:29 | -21.59649 | -42.56339 | 27691 ft | 433 kts | 25° |
| 2026-04-27 16:30 | -21.54297 | -42.53314 | 28378 ft | 435 kts | 24° |
| 2026-04-27 16:30 | -21.48910 | -42.50288 | 29015 ft | 438 kts | 24° |
| 2026-04-27 16:31 | -21.40793 | -42.45653 | 29914 ft | 442 kts | 24° |
| 2026-04-27 16:31 | -21.35388 | -42.42547 | 30466 ft | 445 kts | 24° |
| 2026-04-27 16:32 | -21.29883 | -42.39385 | 30899 ft | 450 kts | 24° |
| 2026-04-27 16:32 | -21.27119 | -42.37799 | 31165 ft | 451 kts | 24° |
| 2026-04-27 16:33 | -21.21555 | -42.34609 | 31601 ft | 455 kts | 24° |
| 2026-04-27 16:33 | -21.18757 | -42.33006 | 31823 ft | 457 kts | 24° |
| 2026-04-27 16:33 | -21.15945 | -42.31396 | 32025 ft | 459 kts | 24° |
| 2026-04-27 16:33 | -21.13124 | -42.29781 | 32217 ft | 461 kts | 24° |
| 2026-04-27 16:34 | -21.10284 | -42.28156 | 32424 ft | 463 kts | 24° |
| 2026-04-27 16:34 | -21.07436 | -42.26527 | 32674 ft | 464 kts | 24° |
| 2026-04-27 16:34 | -21.04596 | -42.24902 | 32972 ft | 463 kts | 24° |
| 2026-04-27 16:34 | -21.01763 | -42.23282 | 33282 ft | 461 kts | 24° |
| 2026-04-27 16:35 | -20.98926 | -42.21661 | 33497 ft | 462 kts | 24° |
| 2026-04-27 16:35 | -20.96082 | -42.20038 | 33725 ft | 463 kts | 24° |
| 2026-04-27 16:35 | -20.90414 | -42.16804 | 34320 ft | 460 kts | 24° |
| 2026-04-27 16:36 | -20.87587 | -42.15191 | 34553 ft | 460 kts | 24° |
| 2026-04-27 16:36 | -20.84764 | -42.13582 | 34787 ft | 460 kts | 24° |
| 2026-04-27 16:36 | -20.81931 | -42.11968 | 35015 ft | 460 kts | 24° |
| 2026-04-27 16:37 | -20.76270 | -42.08745 | 34998 ft | 459 kts | 24° |
| 2026-04-27 16:37 | -20.70674 | -42.05560 | 35005 ft | 453 kts | 25° |
| 2026-04-27 16:38 | -20.65112 | -42.02399 | 35000 ft | 452 kts | 25° |
| 2026-04-27 16:38 | -20.59577 | -41.99220 | 35003 ft | 451 kts | 26° |
| 2026-04-27 16:39 | -20.54102 | -41.95940 | 35003 ft | 452 kts | 26° |
| 2026-04-27 16:39 | -20.48622 | -41.92643 | 35001 ft | 452 kts | 26° |
| 2026-04-27 16:40 | -20.43129 | -41.89355 | 34985 ft | 454 kts | 26° |
| 2026-04-27 16:40 | -20.37608 | -41.86064 | 34983 ft | 455 kts | 26° |
| 2026-04-27 16:41 | -20.32073 | -41.82768 | 34986 ft | 457 kts | 26° |
| 2026-04-27 16:41 | -20.26527 | -41.79468 | 34980 ft | 457 kts | 26° |
| 2026-04-27 16:42 | -20.20980 | -41.76168 | 35005 ft | 456 kts | 26° |
| 2026-04-27 16:42 | -20.15433 | -41.72871 | 34982 ft | 457 kts | 26° |
| 2026-04-27 16:43 | -20.09874 | -41.69571 | 34977 ft | 457 kts | 26° |
| 2026-04-27 16:43 | -20.04309 | -41.66278 | 34970 ft | 458 kts | 26° |
| 2026-04-27 16:44 | -19.98740 | -41.62985 | 34977 ft | 457 kts | 26° |
| 2026-04-27 16:44 | -19.93182 | -41.59700 | 34970 ft | 457 kts | 26° |
| 2026-04-27 16:45 | -19.87627 | -41.56418 | 34982 ft | 456 kts | 26° |
| 2026-04-27 16:45 | -19.82078 | -41.53142 | 35000 ft | 455 kts | 26° |
| 2026-04-27 16:46 | -19.76542 | -41.49880 | 35004 ft | 455 kts | 26° |
| 2026-04-27 16:46 | -19.71012 | -41.46623 | 34995 ft | 454 kts | 26° |
| 2026-04-27 16:47 | -19.65491 | -41.43373 | 34990 ft | 453 kts | 26° |
| 2026-04-27 16:47 | -19.60015 | -41.40154 | 35006 ft | 453 kts | 26° |
| 2026-04-27 16:48 | -19.54499 | -41.36913 | 34994 ft | 453 kts | 26° |
| 2026-04-27 16:48 | -19.48988 | -41.33676 | 34996 ft | 453 kts | 26° |
| 2026-04-27 16:49 | -19.40708 | -41.28817 | 34997 ft | 454 kts | 26° |
| 2026-04-27 16:49 | -19.35180 | -41.25576 | 34986 ft | 454 kts | 26° |
| 2026-04-27 16:50 | -19.29652 | -41.22326 | 34983 ft | 454 kts | 26° |
| 2026-04-27 16:50 | -19.24134 | -41.19082 | 34994 ft | 454 kts | 26° |
| 2026-04-27 16:51 | -19.18607 | -41.15835 | 34999 ft | 454 kts | 26° |
| 2026-04-27 16:51 | -19.13083 | -41.12593 | 34987 ft | 454 kts | 27° |
| 2026-04-27 16:52 | -19.07554 | -41.09350 | 34986 ft | 454 kts | 27° |
| 2026-04-27 16:52 | -19.02024 | -41.06111 | 35000 ft | 455 kts | 26° |
| 2026-04-27 16:53 | -18.96485 | -41.02877 | 35000 ft | 455 kts | 27° |
| 2026-04-27 16:53 | -18.90945 | -40.99644 | 34986 ft | 455 kts | 27° |
| 2026-04-27 16:54 | -18.85410 | -40.96415 | 34988 ft | 454 kts | 27° |
| 2026-04-27 16:54 | -18.79910 | -40.93207 | 34991 ft | 454 kts | 27° |
| 2026-04-27 16:55 | -18.74385 | -40.89989 | 34986 ft | 454 kts | 27° |
| 2026-04-27 16:55 | -18.68848 | -40.86765 | 34986 ft | 453 kts | 27° |
| 2026-04-27 16:56 | -18.63357 | -40.83570 | 34994 ft | 453 kts | 27° |
| 2026-04-27 16:56 | -18.57839 | -40.80362 | 35001 ft | 453 kts | 27° |
| 2026-04-27 16:57 | -18.52323 | -40.77158 | 35001 ft | 452 kts | 27° |
| 2026-04-27 16:57 | -18.46814 | -40.73958 | 34994 ft | 452 kts | 27° |
| 2026-04-27 16:58 | -18.41297 | -40.70758 | 35003 ft | 452 kts | 27° |
| 2026-04-27 16:58 | -18.35777 | -40.67567 | 35002 ft | 452 kts | 27° |
| 2026-04-27 16:59 | -18.30261 | -40.64384 | 35003 ft | 452 kts | 27° |
| 2026-04-27 16:59 | -18.24739 | -40.61199 | 34996 ft | 453 kts | 27° |
| 2026-04-27 17:00 | -18.16446 | -40.56418 | 35006 ft | 453 kts | 27° |
| 2026-04-27 17:01 | -18.10960 | -40.53258 | 34992 ft | 453 kts | 27° |
| 2026-04-27 17:01 | -18.05428 | -40.50073 | 35006 ft | 453 kts | 27° |
| 2026-04-27 17:02 | -17.99906 | -40.46896 | 35012 ft | 453 kts | 27° |
| 2026-04-27 17:02 | -17.94375 | -40.43717 | 35006 ft | 453 kts | 27° |
| 2026-04-27 17:03 | -17.88848 | -40.40542 | 35008 ft | 453 kts | 27° |
| 2026-04-27 17:03 | -17.83319 | -40.37368 | 35004 ft | 453 kts | 27° |
| 2026-04-27 17:04 | -17.77792 | -40.34197 | 35002 ft | 452 kts | 27° |
| 2026-04-27 17:04 | -17.72274 | -40.31119 | 35009 ft | 452 kts | 26° |
| 2026-04-27 17:05 | -17.66691 | -40.28065 | 35005 ft | 452 kts | 26° |
| 2026-04-27 17:05 | -17.61114 | -40.25008 | 35006 ft | 452 kts | 26° |
| 2026-04-27 17:06 | -17.55538 | -40.21944 | 35012 ft | 452 kts | 26° |
| 2026-04-27 17:06 | -17.49964 | -40.18878 | 35012 ft | 452 kts | 26° |
| 2026-04-27 17:07 | -17.44388 | -40.15813 | 35013 ft | 452 kts | 26° |
| 2026-04-27 17:07 | -17.38819 | -40.12755 | 35017 ft | 452 kts | 26° |
| 2026-04-27 17:08 | -17.33279 | -40.09715 | 35021 ft | 452 kts | 26° |
| 2026-04-27 17:08 | -17.28604 | -40.07151 | 35021 ft | 452 kts | 26° |
| 2026-04-27 17:09 | -17.23059 | -40.04112 | 34994 ft | 453 kts | 26° |
| 2026-04-27 17:09 | -17.17475 | -40.01053 | 34996 ft | 453 kts | 26° |
| 2026-04-27 17:10 | -17.11892 | -39.97998 | 34986 ft | 453 kts | 26° |
| 2026-04-27 17:10 | -17.06306 | -39.94942 | 35000 ft | 452 kts | 26° |
| 2026-04-27 17:11 | -17.00725 | -39.91890 | 34985 ft | 452 kts | 26° |
| 2026-04-27 17:11 | -16.92357 | -39.87322 | 34993 ft | 452 kts | 26° |
| 2026-04-27 17:12 | -16.83981 | -39.82753 | 34986 ft | 453 kts | 27° |
| 2026-04-27 17:13 | -16.78401 | -39.79711 | 34985 ft | 453 kts | 27° |
| 2026-04-27 17:13 | -16.72821 | -39.76670 | 34990 ft | 452 kts | 27° |
| 2026-04-27 17:14 | -16.67240 | -39.73631 | 34986 ft | 452 kts | 27° |
| 2026-04-27 17:14 | -16.61655 | -39.70592 | 34996 ft | 452 kts | 27° |
| 2026-04-27 17:15 | -16.56076 | -39.67558 | 34989 ft | 452 kts | 27° |
| 2026-04-27 17:15 | -16.50532 | -39.64545 | 34990 ft | 452 kts | 27° |
| 2026-04-27 17:16 | -16.44945 | -39.61511 | 34983 ft | 453 kts | 27° |
| 2026-04-27 17:16 | -16.39364 | -39.58482 | 35000 ft | 452 kts | 27° |
| 2026-04-27 17:17 | -16.33779 | -39.55452 | 35003 ft | 452 kts | 27° |
| 2026-04-27 17:17 | -16.28192 | -39.52424 | 35002 ft | 452 kts | 27° |
| 2026-04-27 17:18 | -16.19809 | -39.47883 | 34995 ft | 453 kts | 27° |
| 2026-04-27 17:18 | -16.14220 | -39.44859 | 35000 ft | 453 kts | 27° |
| 2026-04-27 17:19 | -16.08631 | -39.41836 | 34997 ft | 453 kts | 27° |
| 2026-04-27 17:19 | -16.03076 | -39.38832 | 35001 ft | 453 kts | 27° |
| 2026-04-27 17:20 | -15.97481 | -39.35809 | 34995 ft | 453 kts | 27° |
| 2026-04-27 17:20 | -15.91891 | -39.32795 | 35001 ft | 452 kts | 27° |
| 2026-04-27 17:21 | -15.86303 | -39.29787 | 35004 ft | 452 kts | 27° |
| 2026-04-27 17:21 | -15.80714 | -39.26778 | 34999 ft | 452 kts | 27° |
| 2026-04-27 17:22 | -15.75126 | -39.23772 | 34996 ft | 452 kts | 27° |
| 2026-04-27 17:22 | -15.69539 | -39.20767 | 35000 ft | 452 kts | 27° |
| 2026-04-27 17:23 | -15.63957 | -39.17767 | 35010 ft | 452 kts | 27° |
| 2026-04-27 17:23 | -15.58401 | -39.14783 | 35002 ft | 452 kts | 27° |
| 2026-04-27 17:24 | -15.52814 | -39.11784 | 35007 ft | 452 kts | 27° |
| 2026-04-27 17:24 | -15.47229 | -39.08788 | 35004 ft | 452 kts | 27° |
| 2026-04-27 17:25 | -15.41635 | -39.05789 | 35018 ft | 452 kts | 27° |
| 2026-04-27 17:25 | -15.36070 | -39.02807 | 35022 ft | 452 kts | 27° |
| 2026-04-27 17:26 | -15.30479 | -38.99813 | 35018 ft | 452 kts | 27° |
| 2026-04-27 17:26 | -15.24888 | -38.96820 | 35022 ft | 452 kts | 27° |
| 2026-04-27 17:27 | -15.19288 | -38.93825 | 35017 ft | 453 kts | 27° |
| 2026-04-27 17:27 | -15.13691 | -38.90833 | 35020 ft | 453 kts | 27° |
| 2026-04-27 17:28 | -15.08090 | -38.87840 | 35019 ft | 453 kts | 27° |
| 2026-04-27 17:29 | -14.99692 | -38.83353 | 35022 ft | 453 kts | 27° |
| 2026-04-27 17:29 | -14.94087 | -38.80360 | 35022 ft | 453 kts | 27° |
| 2026-04-27 17:30 | -14.88486 | -38.77371 | 35022 ft | 453 kts | 27° |
| 2026-04-27 17:30 | -14.80114 | -38.72906 | 35019 ft | 453 kts | 27° |
| 2026-04-27 17:31 | -14.74507 | -38.69918 | 35018 ft | 453 kts | 27° |
| 2026-04-27 17:31 | -14.68899 | -38.66931 | 35019 ft | 453 kts | 27° |
| 2026-04-27 17:32 | -14.60485 | -38.62453 | 35017 ft | 453 kts | 27° |
| 2026-04-27 17:33 | -14.54905 | -38.59486 | 35017 ft | 453 kts | 27° |
| 2026-04-27 17:33 | -14.49303 | -38.56508 | 35018 ft | 453 kts | 27° |
| 2026-04-27 17:34 | -14.43690 | -38.53527 | 35017 ft | 453 kts | 27° |
| 2026-04-27 17:34 | -14.38075 | -38.50545 | 35019 ft | 453 kts | 27° |
| 2026-04-27 17:35 | -14.32460 | -38.47566 | 35020 ft | 453 kts | 27° |
| 2026-04-27 17:35 | -14.26851 | -38.44591 | 35017 ft | 453 kts | 27° |
| 2026-04-27 17:36 | -14.21274 | -38.41636 | 35017 ft | 453 kts | 27° |
| 2026-04-27 17:36 | -14.15664 | -38.38664 | 35018 ft | 453 kts | 27° |
| 2026-04-27 17:37 | -14.10050 | -38.35692 | 35021 ft | 454 kts | 27° |
| 2026-04-27 17:37 | -14.04432 | -38.32719 | 35011 ft | 454 kts | 27° |
| 2026-04-27 17:38 | -13.98807 | -38.29745 | 35014 ft | 454 kts | 27° |
| 2026-04-27 17:38 | -13.93191 | -38.26777 | 35012 ft | 454 kts | 27° |
| 2026-04-27 17:39 | -13.87568 | -38.23806 | 35003 ft | 454 kts | 27° |
| 2026-04-27 17:39 | -13.81944 | -38.20837 | 35002 ft | 454 kts | 27° |
| 2026-04-27 17:40 | -13.76353 | -38.17887 | 34997 ft | 454 kts | 27° |
| 2026-04-27 17:40 | -13.70727 | -38.14920 | 34998 ft | 454 kts | 27° |
| 2026-04-27 17:41 | -13.65100 | -38.11954 | 35001 ft | 454 kts | 27° |
| 2026-04-27 17:41 | -13.59476 | -38.08991 | 34997 ft | 453 kts | 27° |
| 2026-04-27 17:42 | -13.53862 | -38.06035 | 34997 ft | 453 kts | 27° |
| 2026-04-27 17:42 | -13.48249 | -38.03081 | 35000 ft | 453 kts | 27° |
| 2026-04-27 17:43 | -13.42672 | -38.00148 | 34999 ft | 453 kts | 27° |
| 2026-04-27 17:43 | -13.37070 | -37.97204 | 35005 ft | 452 kts | 27° |
| 2026-04-27 17:44 | -13.31471 | -37.94262 | 35002 ft | 452 kts | 27° |
| 2026-04-27 17:44 | -13.25874 | -37.91323 | 34993 ft | 452 kts | 27° |
| 2026-04-27 17:45 | -13.20266 | -37.88379 | 34999 ft | 451 kts | 27° |
| 2026-04-27 17:45 | -13.14677 | -37.85447 | 34986 ft | 451 kts | 27° |
| 2026-04-27 17:46 | -13.09093 | -37.82519 | 34994 ft | 451 kts | 27° |
| 2026-04-27 17:46 | -13.03512 | -37.79595 | 34993 ft | 450 kts | 27° |
| 2026-04-27 17:47 | -12.97936 | -37.76674 | 34988 ft | 450 kts | 27° |
| 2026-04-27 17:47 | -12.92361 | -37.73755 | 34985 ft | 449 kts | 27° |
| 2026-04-27 17:48 | -12.86789 | -37.70840 | 34997 ft | 449 kts | 27° |
| 2026-04-27 17:48 | -12.81263 | -37.67950 | 34998 ft | 449 kts | 27° |
| 2026-04-27 17:49 | -12.75705 | -37.65044 | 34986 ft | 448 kts | 28° |
| 2026-04-27 17:49 | -12.70142 | -37.62138 | 34994 ft | 448 kts | 28° |
| 2026-04-27 17:50 | -12.64578 | -37.59232 | 34993 ft | 448 kts | 27° |
| 2026-04-27 17:50 | -12.56257 | -37.54890 | 34988 ft | 447 kts | 28° |
| 2026-04-27 17:51 | -12.50710 | -37.51997 | 34998 ft | 447 kts | 28° |
| 2026-04-27 17:51 | -12.45168 | -37.49107 | 34986 ft | 447 kts | 28° |
| 2026-04-27 17:52 | -12.39659 | -37.46236 | 34978 ft | 447 kts | 28° |
| 2026-04-27 17:52 | -12.35014 | -37.43817 | 34984 ft | 447 kts | 28° |
| 2026-04-27 17:53 | -12.28577 | -37.40466 | 34981 ft | 447 kts | 28° |
| 2026-04-27 17:53 | -12.23032 | -37.37581 | 34982 ft | 447 kts | 28° |
| 2026-04-27 17:54 | -12.17495 | -37.34701 | 34982 ft | 447 kts | 28° |
| 2026-04-27 17:54 | -12.11953 | -37.31820 | 34982 ft | 447 kts | 28° |
| 2026-04-27 17:55 | -12.06412 | -37.28941 | 34982 ft | 446 kts | 28° |
| 2026-04-27 17:55 | -12.00872 | -37.26063 | 34981 ft | 446 kts | 28° |
| 2026-04-27 17:56 | -11.95372 | -37.23208 | 34978 ft | 446 kts | 28° |
| 2026-04-27 17:56 | -11.90731 | -37.20800 | 34971 ft | 446 kts | 28° |
| 2026-04-27 17:57 | -11.85221 | -37.17942 | 34973 ft | 446 kts | 28° |
| 2026-04-27 17:57 | -11.79680 | -37.15069 | 34972 ft | 446 kts | 28° |
| 2026-04-27 17:58 | -11.74145 | -37.12200 | 34972 ft | 446 kts | 28° |
| 2026-04-27 17:58 | -11.68609 | -37.09332 | 34972 ft | 446 kts | 28° |
| 2026-04-27 17:59 | -11.63080 | -37.06469 | 34973 ft | 445 kts | 28° |
| 2026-04-27 17:59 | -11.57550 | -37.03607 | 34971 ft | 445 kts | 28° |
| 2026-04-27 18:00 | -11.52058 | -37.00775 | 34973 ft | 445 kts | 28° |
| 2026-04-27 18:00 | -11.46536 | -36.97930 | 34972 ft | 445 kts | 28° |
| 2026-04-27 18:01 | -11.41014 | -36.95084 | 34972 ft | 444 kts | 28° |
| 2026-04-27 18:01 | -11.35496 | -36.92241 | 34972 ft | 444 kts | 28° |
| 2026-04-27 18:02 | -11.29972 | -36.89396 | 34973 ft | 444 kts | 28° |
| 2026-04-27 18:02 | -11.24449 | -36.86553 | 34973 ft | 445 kts | 28° |
| 2026-04-27 18:03 | -11.18924 | -36.83709 | 34969 ft | 445 kts | 28° |
| 2026-04-27 18:03 | -11.13394 | -36.80865 | 34963 ft | 445 kts | 27° |
| 2026-04-27 18:04 | -11.07865 | -36.78022 | 34963 ft | 445 kts | 27° |
| 2026-04-27 18:04 | -11.02373 | -36.75199 | 34961 ft | 445 kts | 27° |
| 2026-04-27 18:05 | -10.96833 | -36.72353 | 34963 ft | 445 kts | 27° |
| 2026-04-27 18:05 | -10.91299 | -36.69510 | 34964 ft | 445 kts | 27° |
| 2026-04-27 18:06 | -10.85763 | -36.66668 | 34963 ft | 446 kts | 27° |
| 2026-04-27 18:06 | -10.80218 | -36.63835 | 34963 ft | 446 kts | 27° |
| 2026-04-27 18:07 | -10.74653 | -36.61034 | 34963 ft | 446 kts | 27° |
| 2026-04-27 18:07 | -10.69097 | -36.58243 | 34963 ft | 446 kts | 27° |
| 2026-04-27 18:08 | -10.63536 | -36.55446 | 34963 ft | 446 kts | 27° |
| 2026-04-27 18:08 | -10.57975 | -36.52647 | 34961 ft | 446 kts | 27° |
| 2026-04-27 18:09 | -10.52455 | -36.49868 | 34964 ft | 446 kts | 27° |
| 2026-04-27 18:09 | -10.46897 | -36.47072 | 34960 ft | 446 kts | 27° |
| 2026-04-27 18:10 | -10.41294 | -36.44254 | 34964 ft | 446 kts | 27° |
| 2026-04-27 18:10 | -10.35726 | -36.41456 | 34963 ft | 446 kts | 27° |
| 2026-04-27 18:11 | -10.30190 | -36.38673 | 34962 ft | 447 kts | 27° |
| 2026-04-27 18:11 | -10.24610 | -36.35871 | 34965 ft | 447 kts | 27° |
| 2026-04-27 18:12 | -10.19027 | -36.33068 | 34963 ft | 448 kts | 27° |
| 2026-04-27 18:12 | -10.13441 | -36.30265 | 34964 ft | 448 kts | 27° |
| 2026-04-27 18:13 | -10.07847 | -36.27458 | 34964 ft | 449 kts | 27° |
| 2026-04-27 18:13 | -10.02245 | -36.24649 | 34964 ft | 449 kts | 26° |
| 2026-04-27 18:14 | -9.96643 | -36.21840 | 34963 ft | 449 kts | 26° |
| 2026-04-27 18:14 | -9.91040 | -36.19033 | 34963 ft | 449 kts | 26° |
| 2026-04-27 18:15 | -9.85439 | -36.16227 | 34965 ft | 449 kts | 26° |
| 2026-04-27 18:15 | -9.79839 | -36.13423 | 34961 ft | 449 kts | 26° |
| 2026-04-27 18:16 | -9.74238 | -36.10620 | 34963 ft | 449 kts | 26° |
| 2026-04-27 18:16 | -9.68640 | -36.07818 | 34963 ft | 448 kts | 26° |
| 2026-04-27 18:17 | -9.63051 | -36.05023 | 34961 ft | 448 kts | 26° |
| 2026-04-27 18:17 | -9.57415 | -36.02205 | 34974 ft | 456 kts | 26° |
| 2026-04-27 18:18 | -9.51682 | -35.99340 | 34960 ft | 460 kts | 27° |
| 2026-04-27 18:18 | -9.48791 | -35.97895 | 34430 ft | 466 kts | 26° |
| 2026-04-27 18:18 | -9.45889 | -35.96445 | 33823 ft | 464 kts | 26° |
| 2026-04-27 18:19 | -9.42988 | -35.94997 | 33133 ft | 465 kts | 27° |
| 2026-04-27 18:19 | -9.40083 | -35.93546 | 32419 ft | 466 kts | 27° |
| 2026-04-27 18:19 | -9.37216 | -35.92115 | 31774 ft | 465 kts | 27° |
| 2026-04-27 18:19 | -9.34328 | -35.90674 | 31269 ft | 461 kts | 28° |
| 2026-04-27 18:20 | -9.31462 | -35.89243 | 30739 ft | 457 kts | 28° |
| 2026-04-27 18:20 | -9.28620 | -35.87826 | 30218 ft | 453 kts | 28° |
| 2026-04-27 18:20 | -9.25803 | -35.86420 | 29708 ft | 450 kts | 28° |
| 2026-04-27 18:20 | -9.22972 | -35.85008 | 29178 ft | 446 kts | 28° |
| 2026-04-27 18:21 | -9.20201 | -35.83626 | 28656 ft | 442 kts | 29° |
| 2026-04-27 18:21 | -9.17453 | -35.82256 | 28130 ft | 438 kts | 29° |
| 2026-04-27 18:21 | -9.14732 | -35.80899 | 27613 ft | 434 kts | 29° |
| 2026-04-27 18:21 | -9.12036 | -35.79554 | 27096 ft | 431 kts | 29° |
| 2026-04-27 18:22 | -9.09357 | -35.78218 | 26579 ft | 427 kts | 29° |
| 2026-04-27 18:22 | -9.06697 | -35.76892 | 26072 ft | 424 kts | 29° |
| 2026-04-27 18:22 | -9.04064 | -35.75579 | 25561 ft | 420 kts | 30° |
| 2026-04-27 18:22 | -9.01573 | -35.74084 | 25058 ft | 413 kts | 38° |
| 2026-04-27 18:23 | -8.99393 | -35.72242 | 24559 ft | 405 kts | 46° |
| 2026-04-27 18:23 | -8.97361 | -35.70287 | 24072 ft | 401 kts | 47° |
| 2026-04-27 18:23 | -8.95355 | -35.68338 | 23578 ft | 398 kts | 47° |
| 2026-04-27 18:23 | -8.93367 | -35.66410 | 23093 ft | 394 kts | 47° |
| 2026-04-27 18:24 | -8.91390 | -35.64504 | 22607 ft | 391 kts | 46° |
| 2026-04-27 18:24 | -8.89422 | -35.62617 | 22118 ft | 388 kts | 46° |
| 2026-04-27 18:24 | -8.87468 | -35.60749 | 21650 ft | 385 kts | 46° |
| 2026-04-27 18:24 | -8.85527 | -35.58898 | 21178 ft | 382 kts | 46° |
| 2026-04-27 18:25 | -8.83598 | -35.57060 | 20708 ft | 379 kts | 46° |
| 2026-04-27 18:25 | -8.81687 | -35.55239 | 20246 ft | 376 kts | 46° |
| 2026-04-27 18:25 | -8.79787 | -35.53429 | 19779 ft | 374 kts | 46° |
| 2026-04-27 18:25 | -8.77928 | -35.51659 | 19323 ft | 371 kts | 45° |
| 2026-04-27 18:26 | -8.76052 | -35.49871 | 18868 ft | 369 kts | 45° |
| 2026-04-27 18:26 | -8.74190 | -35.48098 | 18418 ft | 366 kts | 45° |
| 2026-04-27 18:26 | -8.72340 | -35.46337 | 17973 ft | 364 kts | 45° |
| 2026-04-27 18:26 | -8.70501 | -35.44586 | 17513 ft | 362 kts | 45° |
| 2026-04-27 18:27 | -8.68671 | -35.42845 | 17069 ft | 360 kts | 45° |
| 2026-04-27 18:27 | -8.66851 | -35.41116 | 16631 ft | 358 kts | 45° |
| 2026-04-27 18:27 | -8.65042 | -35.39400 | 16199 ft | 355 kts | 45° |
| 2026-04-27 18:27 | -8.63246 | -35.37697 | 15744 ft | 354 kts | 45° |
| 2026-04-27 18:28 | -8.61458 | -35.36001 | 15317 ft | 352 kts | 45° |
| 2026-04-27 18:28 | -8.59682 | -35.34316 | 14870 ft | 349 kts | 45° |
| 2026-04-27 18:28 | -8.57913 | -35.32638 | 14451 ft | 347 kts | 45° |
| 2026-04-27 18:28 | -8.56156 | -35.30972 | 14022 ft | 346 kts | 44° |
| 2026-04-27 18:29 | -8.54428 | -35.29332 | 13600 ft | 344 kts | 44° |
| 2026-04-27 18:29 | -8.52690 | -35.27683 | 13175 ft | 342 kts | 44° |
| 2026-04-27 18:29 | -8.50958 | -35.26040 | 12744 ft | 340 kts | 44° |
| 2026-04-27 18:29 | -8.49239 | -35.24410 | 12325 ft | 338 kts | 44° |
| 2026-04-27 18:30 | -8.47526 | -35.22785 | 11904 ft | 337 kts | 44° |
| 2026-04-27 18:30 | -8.45823 | -35.21171 | 11485 ft | 335 kts | 44° |
| 2026-04-27 18:30 | -8.44129 | -35.19566 | 11071 ft | 333 kts | 44° |
| 2026-04-27 18:30 | -8.42445 | -35.17971 | 10643 ft | 331 kts | 44° |
| 2026-04-27 18:31 | -8.40780 | -35.16397 | 10460 ft | 322 kts | 44° |
| 2026-04-27 18:31 | -8.39169 | -35.14875 | 10317 ft | 313 kts | 44° |
| 2026-04-27 18:31 | -8.37603 | -35.13396 | 10193 ft | 303 kts | 44° |
| 2026-04-27 18:31 | -8.36088 | -35.11964 | 10052 ft | 294 kts | 44° |
| 2026-04-27 18:32 | -8.34612 | -35.10569 | 9927 ft | 286 kts | 44° |
| 2026-04-27 18:32 | -8.33167 | -35.09203 | 9642 ft | 284 kts | 44° |
| 2026-04-27 18:32 | -8.31732 | -35.07846 | 9371 ft | 282 kts | 44° |
| 2026-04-27 18:32 | -8.30322 | -35.06514 | 9074 ft | 280 kts | 44° |
| 2026-04-27 18:33 | -8.28901 | -35.05173 | 8782 ft | 279 kts | 44° |
| 2026-04-27 18:33 | -8.27247 | -35.04117 | 8464 ft | 281 kts | 20° |
| 2026-04-27 18:33 | -8.25379 | -35.03640 | 8205 ft | 279 kts | 14° |
| 2026-04-27 18:33 | -8.23489 | -35.03215 | 7913 ft | 278 kts | 14° |
| 2026-04-27 18:34 | -8.21599 | -35.02783 | 7615 ft | 277 kts | 15° |
| 2026-04-27 18:34 | -8.19725 | -35.02348 | 7325 ft | 276 kts | 15° |
| 2026-04-27 18:34 | -8.17859 | -35.01911 | 7049 ft | 275 kts | 15° |
| 2026-04-27 18:34 | -8.16064 | -35.01310 | 6953 ft | 271 kts | 33° |
| 2026-04-27 18:35 | -8.14696 | -35.00023 | 6957 ft | 272 kts | 58° |
| 2026-04-27 18:35 | -8.13994 | -34.98259 | 6955 ft | 274 kts | 83° |
| 2026-04-27 18:35 | -8.14113 | -34.96325 | 6945 ft | 274 kts | 108° |
| 2026-04-27 18:35 | -8.15051 | -34.94672 | 6935 ft | 274 kts | 133° |
| 2026-04-27 18:36 | -8.16599 | -34.93614 | 6946 ft | 276 kts | 158° |
| 2026-04-27 18:36 | -8.18494 | -34.93301 | 6951 ft | 279 kts | 181° |
| 2026-04-27 18:36 | -8.20412 | -34.93646 | 6958 ft | 281 kts | 191° |
| 2026-04-27 18:36 | -8.22315 | -34.94113 | 6937 ft | 282 kts | 192° |
| 2026-04-27 18:37 | -8.24227 | -34.94581 | 6941 ft | 283 kts | 191° |
| 2026-04-27 18:37 | -8.26150 | -34.95041 | 6940 ft | 284 kts | 191° |
| 2026-04-27 18:37 | -8.27976 | -34.95784 | 6932 ft | 287 kts | 214° |
| 2026-04-27 18:37 | -8.29303 | -34.97285 | 6943 ft | 291 kts | 242° |
| 2026-04-27 18:38 | -8.29814 | -34.99248 | 6941 ft | 293 kts | 269° |
| 2026-04-27 18:38 | -8.29628 | -35.00592 | 6950 ft | 293 kts | 288° |
| 2026-04-27 18:38 | -8.28599 | -35.02339 | 6956 ft | 291 kts | 316° |
| 2026-04-27 18:38 | -8.26901 | -35.03405 | 6947 ft | 288 kts | 345° |
| 2026-04-27 18:39 | -8.24926 | -35.03588 | 6949 ft | 285 kts | 9° |
| 2026-04-27 18:39 | -8.22993 | -35.03187 | 6956 ft | 284 kts | 15° |
| 2026-04-27 18:39 | -8.21068 | -35.02705 | 6959 ft | 285 kts | 16° |
| 2026-04-27 18:39 | -8.19135 | -35.02230 | 6948 ft | 286 kts | 15° |
| 2026-04-27 18:40 | -8.17193 | -35.01762 | 6941 ft | 287 kts | 17° |
| 2026-04-27 18:40 | -8.15421 | -35.00906 | 6943 ft | 282 kts | 41° |
| 2026-04-27 18:40 | -8.14206 | -34.99396 | 6945 ft | 277 kts | 66° |
| 2026-04-27 18:40 | -8.13722 | -34.97543 | 6948 ft | 274 kts | 89° |
| 2026-04-27 18:41 | -8.14018 | -34.95665 | 6950 ft | 273 kts | 111° |
| 2026-04-27 18:41 | -8.15047 | -34.94067 | 6944 ft | 274 kts | 135° |
| 2026-04-27 18:41 | -8.16641 | -34.93032 | 6950 ft | 276 kts | 158° |
| 2026-04-27 18:41 | -8.18532 | -34.92695 | 6942 ft | 280 kts | 181° |
| 2026-04-27 18:42 | -8.20460 | -34.93029 | 6956 ft | 282 kts | 191° |
| 2026-04-27 18:42 | -8.21752 | -34.93337 | 6945 ft | 283 kts | 191° |
| 2026-04-27 18:42 | -8.24299 | -34.93953 | 6940 ft | 284 kts | 191° |
| 2026-04-27 18:42 | -8.26226 | -34.94411 | 6943 ft | 285 kts | 191° |
| 2026-04-27 18:43 | -8.28103 | -34.95043 | 6932 ft | 288 kts | 209° |
| 2026-04-27 18:43 | -8.29578 | -34.96398 | 6944 ft | 291 kts | 234° |
| 2026-04-27 18:43 | -8.30356 | -34.98274 | 6956 ft | 292 kts | 260° |
| 2026-04-27 18:43 | -8.30266 | -35.00308 | 6943 ft | 293 kts | 287° |
| 2026-04-27 18:44 | -8.29306 | -35.02105 | 6938 ft | 292 kts | 313° |
| 2026-04-27 18:44 | -8.27678 | -35.03290 | 6948 ft | 289 kts | 340° |
| 2026-04-27 18:44 | -8.25732 | -35.03669 | 6954 ft | 285 kts | 3° |
| 2026-04-27 18:44 | -8.23783 | -35.03361 | 6955 ft | 284 kts | 15° |
| 2026-04-27 18:45 | -8.21855 | -35.02889 | 6945 ft | 285 kts | 15° |
| 2026-04-27 18:45 | -8.19921 | -35.02414 | 6940 ft | 286 kts | 15° |
| 2026-04-27 18:45 | -8.17985 | -35.01950 | 6947 ft | 286 kts | 15° |
| 2026-04-27 18:45 | -8.16096 | -35.01350 | 6933 ft | 284 kts | 31° |
| 2026-04-27 18:46 | -8.14627 | -35.00074 | 6943 ft | 278 kts | 56° |
| 2026-04-27 18:46 | -8.13830 | -34.98323 | 6945 ft | 274 kts | 79° |
| 2026-04-27 18:46 | -8.13806 | -34.96420 | 6950 ft | 273 kts | 102° |
| 2026-04-27 18:46 | -8.14545 | -34.94673 | 6945 ft | 273 kts | 125° |
| 2026-04-27 18:47 | -8.15934 | -34.93377 | 6939 ft | 275 kts | 149° |
| 2026-04-27 18:47 | -8.17744 | -34.92747 | 6950 ft | 278 kts | 171° |
| 2026-04-27 18:47 | -8.19683 | -34.92843 | 6953 ft | 282 kts | 189° |
| 2026-04-27 18:47 | -8.21602 | -34.93292 | 6947 ft | 284 kts | 192° |
| 2026-04-27 18:48 | -8.23520 | -34.93763 | 6938 ft | 284 kts | 191° |
| 2026-04-27 18:48 | -8.25447 | -34.94228 | 6942 ft | 285 kts | 191° |
| 2026-04-27 18:48 | -8.27369 | -34.94714 | 6946 ft | 285 kts | 198° |
| 2026-04-27 18:48 | -8.29057 | -34.95780 | 6942 ft | 289 kts | 224° |
| 2026-04-27 18:49 | -8.30141 | -34.97483 | 6946 ft | 292 kts | 250° |
| 2026-04-27 18:49 | -8.30409 | -34.99504 | 6943 ft | 293 kts | 276° |
| 2026-04-27 18:49 | -8.29785 | -35.01441 | 6950 ft | 292 kts | 302° |
| 2026-04-27 18:49 | -8.28394 | -35.02905 | 6945 ft | 290 kts | 329° |
| 2026-04-27 18:50 | -8.26529 | -35.03610 | 6945 ft | 287 kts | 354° |
| 2026-04-27 18:50 | -8.24556 | -35.03537 | 6950 ft | 284 kts | 13° |
| 2026-04-27 18:50 | -8.22633 | -35.03085 | 6952 ft | 284 kts | 16° |
| 2026-04-27 18:50 | -8.20702 | -35.02606 | 6942 ft | 286 kts | 15° |
| 2026-04-27 18:51 | -8.18769 | -35.02138 | 6940 ft | 286 kts | 15° |
| 2026-04-27 18:51 | -8.16834 | -35.01660 | 6936 ft | 285 kts | 20° |
| 2026-04-27 18:51 | -8.15147 | -35.00669 | 6944 ft | 280 kts | 46° |
| 2026-04-27 18:51 | -8.14061 | -34.99077 | 6946 ft | 276 kts | 70° |
| 2026-04-27 18:52 | -8.13718 | -34.97195 | 6948 ft | 273 kts | 93° |
| 2026-04-27 18:52 | -8.14152 | -34.95343 | 6945 ft | 273 kts | 116° |
| 2026-04-27 18:52 | -8.15296 | -34.93828 | 6954 ft | 274 kts | 139° |
| 2026-04-27 18:53 | -8.18866 | -34.92711 | 6935 ft | 282 kts | 185° |
| 2026-04-27 18:53 | -8.20790 | -34.93098 | 6950 ft | 283 kts | 191° |
| 2026-04-27 18:53 | -8.22735 | -34.93568 | 6946 ft | 284 kts | 191° |
| 2026-04-27 18:53 | -8.24637 | -34.94026 | 6941 ft | 284 kts | 191° |
| 2026-04-27 18:54 | -8.26565 | -34.94483 | 6939 ft | 285 kts | 191° |
| 2026-04-27 18:54 | -8.28400 | -34.95224 | 6935 ft | 288 kts | 213° |
| 2026-04-27 18:54 | -8.29771 | -34.96689 | 6947 ft | 291 kts | 238° |
| 2026-04-27 18:54 | -8.30409 | -34.98619 | 6938 ft | 293 kts | 264° |
| 2026-04-27 18:55 | -8.30162 | -35.00646 | 6937 ft | 293 kts | 291° |
| 2026-04-27 18:55 | -8.29050 | -35.02378 | 6943 ft | 291 kts | 318° |
| 2026-04-27 18:55 | -8.27341 | -35.03416 | 6953 ft | 288 kts | 345° |
| 2026-04-27 18:55 | -8.25370 | -35.03654 | 6947 ft | 285 kts | 7° |
| 2026-04-27 18:56 | -8.23460 | -35.03284 | 6955 ft | 284 kts | 15° |
| 2026-04-27 18:56 | -8.21510 | -35.02804 | 6944 ft | 285 kts | 15° |
| 2026-04-27 18:56 | -8.19583 | -35.02332 | 6952 ft | 285 kts | 15° |
| 2026-04-27 18:56 | -8.17646 | -35.01870 | 6939 ft | 286 kts | 15° |
| 2026-04-27 18:57 | -8.15799 | -35.01176 | 6929 ft | 283 kts | 36° |
| 2026-04-27 18:57 | -8.14434 | -34.99796 | 6948 ft | 277 kts | 60° |
| 2026-04-27 18:57 | -8.13767 | -34.97998 | 6956 ft | 274 kts | 83° |
| 2026-04-27 18:57 | -8.13876 | -34.96096 | 6944 ft | 273 kts | 106° |
| 2026-04-27 18:58 | -8.14741 | -34.94400 | 6938 ft | 274 kts | 129° |
| 2026-04-27 18:58 | -8.15688 | -34.93523 | 6949 ft | 275 kts | 145° |
| 2026-04-27 18:58 | -8.18079 | -34.92698 | 6949 ft | 279 kts | 174° |
| 2026-04-27 18:58 | -8.20014 | -34.92919 | 6957 ft | 282 kts | 190° |
| 2026-04-27 18:59 | -8.21933 | -34.93372 | 6944 ft | 284 kts | 191° |
| 2026-04-27 18:59 | -8.23857 | -34.93838 | 6943 ft | 284 kts | 191° |
| 2026-04-27 18:59 | -8.25780 | -34.94298 | 6951 ft | 284 kts | 191° |
| 2026-04-27 18:59 | -8.27679 | -34.94826 | 6933 ft | 282 kts | 202° |
| 2026-04-27 19:00 | -8.29217 | -34.95976 | 6941 ft | 272 kts | 229° |
| 2026-04-27 19:00 | -8.30109 | -34.97602 | 6935 ft | 261 kts | 253° |
| 2026-04-27 19:00 | -8.30286 | -34.99380 | 6938 ft | 253 kts | 276° |
| 2026-04-27 19:00 | -8.29787 | -35.01068 | 6948 ft | 252 kts | 299° |
| 2026-04-27 19:01 | -8.28699 | -35.02442 | 6943 ft | 252 kts | 322° |
| 2026-04-27 19:01 | -8.27185 | -35.03295 | 6956 ft | 249 kts | 343° |
| 2026-04-27 19:01 | -8.25492 | -35.03593 | 6941 ft | 247 kts | 5° |
| 2026-04-27 19:01 | -8.23809 | -35.03303 | 6957 ft | 245 kts | 15° |
| 2026-04-27 19:02 | -8.22143 | -35.02917 | 6947 ft | 247 kts | 15° |
| 2026-04-27 19:02 | -8.20466 | -35.02524 | 6946 ft | 247 kts | 15° |
| 2026-04-27 19:02 | -8.18815 | -35.02137 | 6953 ft | 247 kts | 15° |
| 2026-04-27 19:02 | -8.17143 | -35.01743 | 6941 ft | 246 kts | 17° |
| 2026-04-27 19:03 | -8.15663 | -35.00955 | 6943 ft | 239 kts | 47° |
| 2026-04-27 19:03 | -8.14786 | -34.99546 | 6941 ft | 234 kts | 75° |
| 2026-04-27 19:03 | -8.14669 | -34.97936 | 6945 ft | 231 kts | 101° |
| 2026-04-27 19:03 | -8.14998 | -34.96925 | 6939 ft | 231 kts | 118° |
| 2026-04-27 19:04 | -8.16511 | -34.95426 | 6935 ft | 233 kts | 153° |
| 2026-04-27 19:04 | -8.18087 | -34.95038 | 6940 ft | 237 kts | 178° |
| 2026-04-27 19:04 | -8.19726 | -34.95256 | 6956 ft | 240 kts | 190° |
| 2026-04-27 19:04 | -8.21356 | -34.95645 | 6949 ft | 242 kts | 191° |
| 2026-04-27 19:05 | -8.22997 | -34.96048 | 6940 ft | 244 kts | 191° |
| 2026-04-27 19:05 | -8.24650 | -34.96447 | 6945 ft | 245 kts | 191° |
| 2026-04-27 19:05 | -8.26264 | -34.97001 | 6928 ft | 248 kts | 211° |
| 2026-04-27 19:05 | -8.27454 | -34.98253 | 6948 ft | 251 kts | 240° |
| 2026-04-27 19:06 | -8.27903 | -34.99946 | 6937 ft | 253 kts | 271° |
| 2026-04-27 19:06 | -8.27470 | -35.01650 | 6949 ft | 253 kts | 302° |
| 2026-04-27 19:06 | -8.26283 | -35.02885 | 6953 ft | 249 kts | 332° |
| 2026-04-27 19:06 | -8.24653 | -35.03368 | 6952 ft | 245 kts | 1° |
| 2026-04-27 19:07 | -8.22972 | -35.03179 | 6958 ft | 243 kts | 14° |
| 2026-04-27 19:07 | -8.21300 | -35.02778 | 6950 ft | 245 kts | 16° |
| 2026-04-27 19:07 | -8.19666 | -35.02371 | 6954 ft | 246 kts | 16° |
| 2026-04-27 19:07 | -8.17999 | -35.01966 | 6942 ft | 247 kts | 16° |
| 2026-04-27 19:08 | -8.16362 | -35.01463 | 6933 ft | 245 kts | 32° |
| 2026-04-27 19:08 | -8.15147 | -35.00325 | 6945 ft | 238 kts | 61° |
| 2026-04-27 19:08 | -8.14632 | -34.98767 | 6944 ft | 234 kts | 88° |
| 2026-04-27 19:08 | -8.14881 | -34.97169 | 6945 ft | 232 kts | 114° |
| 2026-04-27 19:09 | -8.15830 | -34.95862 | 6941 ft | 234 kts | 140° |
| 2026-04-27 19:09 | -8.17281 | -34.95137 | 6945 ft | 236 kts | 165° |
| 2026-04-27 19:09 | -8.18929 | -34.95104 | 6949 ft | 240 kts | 187° |
| 2026-04-27 19:09 | -8.20567 | -34.95453 | 6947 ft | 242 kts | 191° |
| 2026-04-27 19:10 | -8.22204 | -34.95856 | 6944 ft | 243 kts | 191° |
| 2026-04-27 19:10 | -8.23852 | -34.96257 | 6944 ft | 243 kts | 191° |
| 2026-04-27 19:10 | -8.25495 | -34.96663 | 6945 ft | 244 kts | 196° |
| 2026-04-27 19:10 | -8.26031 | -34.96877 | 6933 ft | 246 kts | 206° |
| 2026-04-27 19:11 | -8.27779 | -34.99079 | 6938 ft | 251 kts | 256° |
| 2026-04-27 19:11 | -8.27789 | -35.00829 | 6941 ft | 252 kts | 286° |
| 2026-04-27 19:11 | -8.26941 | -35.02351 | 6947 ft | 250 kts | 317° |
| 2026-04-27 19:11 | -8.25480 | -35.03228 | 6947 ft | 246 kts | 348° |
| 2026-04-27 19:12 | -8.23796 | -35.03325 | 6954 ft | 242 kts | 11° |
| 2026-04-27 19:12 | -8.22144 | -35.02985 | 6952 ft | 243 kts | 16° |
| 2026-04-27 19:12 | -8.20494 | -35.02575 | 6956 ft | 245 kts | 16° |
| 2026-04-27 19:12 | -8.19372 | -35.02298 | 6951 ft | 246 kts | 16° |
| 2026-04-27 19:13 | -8.17702 | -35.01894 | 6940 ft | 248 kts | 16° |
| 2026-04-27 19:13 | -8.16116 | -35.01317 | 6929 ft | 244 kts | 37° |
| 2026-04-27 19:13 | -8.15006 | -35.00078 | 6949 ft | 237 kts | 65° |
| 2026-04-27 19:13 | -8.14619 | -34.98484 | 6944 ft | 234 kts | 92° |
| 2026-04-27 19:14 | -8.15000 | -34.96906 | 6936 ft | 233 kts | 118° |
| 2026-04-27 19:14 | -8.16058 | -34.95686 | 6940 ft | 234 kts | 144° |
| 2026-04-27 19:14 | -8.17569 | -34.95081 | 6944 ft | 237 kts | 170° |
| 2026-04-27 19:14 | -8.19219 | -34.95156 | 6954 ft | 240 kts | 188° |
| 2026-04-27 19:15 | -8.20857 | -34.95525 | 6946 ft | 242 kts | 191° |
| 2026-04-27 19:15 | -8.22497 | -34.95930 | 6944 ft | 243 kts | 191° |
| 2026-04-27 19:15 | -8.24142 | -34.96329 | 6954 ft | 243 kts | 191° |
| 2026-04-27 19:15 | -8.25778 | -34.96765 | 6940 ft | 245 kts | 201° |
| 2026-04-27 19:16 | -8.27137 | -34.97799 | 6941 ft | 249 kts | 231° |
| 2026-04-27 19:16 | -8.27692 | -34.98808 | 6944 ft | 250 kts | 251° |
| 2026-04-27 19:16 | -8.27696 | -35.01123 | 6948 ft | 251 kts | 291° |
| 2026-04-27 19:16 | -8.26723 | -35.02555 | 6946 ft | 249 kts | 322° |
| 2026-04-27 19:17 | -8.25191 | -35.03296 | 6945 ft | 245 kts | 352° |
| 2026-04-27 19:17 | -8.23506 | -35.03281 | 6957 ft | 242 kts | 12° |
| 2026-04-27 19:17 | -8.21856 | -35.02916 | 6958 ft | 244 kts | 16° |
| 2026-04-27 19:17 | -8.20200 | -35.02502 | 6951 ft | 246 kts | 16° |
| 2026-04-27 19:18 | -8.18532 | -35.02094 | 6938 ft | 247 kts | 16° |
| 2026-04-27 19:18 | -8.16862 | -35.01674 | 6943 ft | 247 kts | 22° |
| 2026-04-27 19:18 | -8.15459 | -35.00744 | 6947 ft | 240 kts | 52° |
| 2026-04-27 19:18 | -8.14709 | -34.99281 | 6944 ft | 235 kts | 79° |
| 2026-04-27 19:19 | -8.14718 | -34.97654 | 6941 ft | 233 kts | 105° |
| 2026-04-27 19:19 | -8.15464 | -34.96216 | 6941 ft | 233 kts | 131° |
| 2026-04-27 19:19 | -8.16786 | -34.95289 | 6944 ft | 236 kts | 158° |
| 2026-04-27 19:19 | -8.18406 | -34.95038 | 6941 ft | 239 kts | 182° |
| 2026-04-27 19:20 | -8.20055 | -34.95326 | 6954 ft | 241 kts | 191° |
| 2026-04-27 19:20 | -8.21690 | -34.95724 | 6944 ft | 242 kts | 191° |
| 2026-04-27 19:20 | -8.23308 | -34.96121 | 6950 ft | 243 kts | 191° |
| 2026-04-27 19:20 | -8.24959 | -34.96518 | 6945 ft | 243 kts | 191° |
| 2026-04-27 19:21 | -8.26520 | -34.97177 | 6927 ft | 247 kts | 217° |
| 2026-04-27 19:21 | -8.27587 | -34.98528 | 6940 ft | 250 kts | 246° |
| 2026-04-27 19:21 | -8.27882 | -35.00267 | 6947 ft | 251 kts | 276° |
| 2026-04-27 19:21 | -8.27301 | -35.01906 | 6949 ft | 250 kts | 307° |
| 2026-04-27 19:22 | -8.26016 | -35.03021 | 6938 ft | 248 kts | 338° |
| 2026-04-27 19:22 | -8.24362 | -35.03369 | 6949 ft | 243 kts | 4° |
| 2026-04-27 19:22 | -8.22699 | -35.03115 | 6960 ft | 242 kts | 15° |
| 2026-04-27 19:22 | -8.21048 | -35.02713 | 6954 ft | 244 kts | 16° |
| 2026-04-27 19:23 | -8.19387 | -35.02301 | 6941 ft | 247 kts | 16° |
| 2026-04-27 19:23 | -8.17714 | -35.01897 | 6945 ft | 247 kts | 16° |
| 2026-04-27 19:23 | -8.16110 | -35.01314 | 6926 ft | 244 kts | 37° |
| 2026-04-27 19:23 | -8.15001 | -35.00073 | 6945 ft | 238 kts | 65° |
| 2026-04-27 19:24 | -8.14616 | -34.98482 | 6944 ft | 234 kts | 92° |
| 2026-04-27 19:24 | -8.14997 | -34.96900 | 6947 ft | 233 kts | 118° |
| 2026-04-27 19:24 | -8.16054 | -34.95680 | 6950 ft | 234 kts | 144° |
| 2026-04-27 19:24 | -8.17562 | -34.95075 | 6950 ft | 237 kts | 170° |
| 2026-04-27 19:25 | -8.19217 | -34.95146 | 6947 ft | 240 kts | 188° |
| 2026-04-27 19:25 | -8.20852 | -34.95515 | 6946 ft | 242 kts | 191° |
| 2026-04-27 19:25 | -8.22492 | -34.95920 | 6950 ft | 242 kts | 191° |
| 2026-04-27 19:25 | -8.24133 | -34.96319 | 6945 ft | 243 kts | 191° |
| 2026-04-27 19:26 | -8.25774 | -34.96754 | 6934 ft | 245 kts | 201° |
| 2026-04-27 19:26 | -8.27137 | -34.97784 | 6943 ft | 249 kts | 231° |
| 2026-04-27 19:26 | -8.27844 | -34.99367 | 6945 ft | 251 kts | 261° |
| 2026-04-27 19:26 | -8.27703 | -35.01108 | 6946 ft | 251 kts | 291° |
| 2026-04-27 19:27 | -8.26733 | -35.02546 | 6939 ft | 249 kts | 322° |
| 2026-04-27 19:27 | -8.25200 | -35.03294 | 6946 ft | 245 kts | 352° |
| 2026-04-27 19:27 | -8.23517 | -35.03284 | 6956 ft | 242 kts | 12° |
| 2026-04-27 19:27 | -8.21868 | -35.02919 | 6950 ft | 244 kts | 16° |
| 2026-04-27 19:28 | -8.20236 | -35.02512 | 6941 ft | 246 kts | 16° |
| 2026-04-27 19:28 | -8.18547 | -35.02098 | 6940 ft | 247 kts | 16° |
| 2026-04-27 19:28 | -8.16881 | -35.01681 | 6947 ft | 246 kts | 21° |
| 2026-04-27 19:28 | -8.15476 | -35.00760 | 6944 ft | 240 kts | 52° |
| 2026-04-27 19:29 | -8.14720 | -34.99320 | 6936 ft | 236 kts | 79° |
| 2026-04-27 19:29 | -8.14710 | -34.97689 | 6944 ft | 233 kts | 105° |
| 2026-04-27 19:29 | -8.15435 | -34.96246 | 6940 ft | 233 kts | 131° |
| 2026-04-27 19:29 | -8.16756 | -34.95298 | 6937 ft | 236 kts | 158° |
| 2026-04-27 19:30 | -8.18372 | -34.95034 | 6941 ft | 239 kts | 182° |
| 2026-04-27 19:30 | -8.20019 | -34.95316 | 6952 ft | 241 kts | 191° |
| 2026-04-27 19:30 | -8.21654 | -34.95713 | 6944 ft | 242 kts | 191° |
| 2026-04-27 19:30 | -8.23295 | -34.96116 | 6944 ft | 243 kts | 191° |
| 2026-04-27 19:31 | -8.24944 | -34.96513 | 6945 ft | 244 kts | 191° |
| 2026-04-27 19:31 | -8.26508 | -34.97164 | 6933 ft | 248 kts | 216° |
| 2026-04-27 19:31 | -8.27580 | -34.98508 | 6951 ft | 250 kts | 245° |
| 2026-04-27 19:31 | -8.27885 | -35.00250 | 6937 ft | 252 kts | 276° |
| 2026-04-27 19:32 | -8.27322 | -35.01877 | 6930 ft | 251 kts | 307° |
| 2026-04-27 19:32 | -8.26030 | -35.03015 | 6944 ft | 247 kts | 337° |
| 2026-04-27 19:32 | -8.24377 | -35.03370 | 6955 ft | 243 kts | 4° |
| 2026-04-27 19:32 | -8.22710 | -35.03119 | 6957 ft | 242 kts | 15° |
| 2026-04-27 19:33 | -8.21064 | -35.02717 | 6945 ft | 245 kts | 16° |
| 2026-04-27 19:33 | -8.19946 | -35.02439 | 6946 ft | 246 kts | 16° |
| 2026-04-27 19:33 | -8.17733 | -35.01902 | 6948 ft | 247 kts | 16° |
| 2026-04-27 19:33 | -8.16126 | -35.01326 | 6931 ft | 244 kts | 37° |
| 2026-04-27 19:34 | -8.15010 | -35.00094 | 6949 ft | 238 kts | 65° |
| 2026-04-27 19:34 | -8.14615 | -34.98502 | 6945 ft | 234 kts | 92° |
| 2026-04-27 19:34 | -8.14986 | -34.96921 | 6946 ft | 233 kts | 118° |
| 2026-04-27 19:34 | -8.16036 | -34.95690 | 6935 ft | 235 kts | 144° |
| 2026-04-27 19:35 | -8.17543 | -34.95076 | 6947 ft | 237 kts | 169° |
| 2026-04-27 19:35 | -8.19197 | -34.95143 | 6954 ft | 240 kts | 188° |
| 2026-04-27 19:35 | -8.20831 | -34.95511 | 6959 ft | 241 kts | 191° |
| 2026-04-27 19:35 | -8.22464 | -34.95913 | 6946 ft | 242 kts | 191° |
| 2026-04-27 19:36 | -8.24108 | -34.96313 | 6937 ft | 243 kts | 191° |
| 2026-04-27 19:36 | -8.25749 | -34.96742 | 6937 ft | 245 kts | 200° |
| 2026-04-27 19:36 | -8.27116 | -34.97754 | 6946 ft | 248 kts | 230° |
| 2026-04-27 19:36 | -8.27837 | -34.99327 | 6942 ft | 251 kts | 260° |
| 2026-04-27 19:37 | -8.27708 | -35.01093 | 6935 ft | 251 kts | 291° |
| 2026-04-27 19:37 | -8.26745 | -35.02535 | 6942 ft | 249 kts | 322° |
| 2026-04-27 19:37 | -8.25242 | -35.03285 | 6951 ft | 245 kts | 351° |
| 2026-04-27 19:37 | -8.23540 | -35.03538 | 6770 ft | 252 kts | 353° |
| 2026-04-27 19:38 | -8.21790 | -35.03819 | 6522 ft | 255 kts | 353° |
| 2026-04-27 19:38 | -8.20045 | -35.04106 | 6270 ft | 254 kts | 353° |
| 2026-04-27 19:38 | -8.18308 | -35.04389 | 6026 ft | 252 kts | 353° |
| 2026-04-27 19:38 | -8.16578 | -35.04670 | 5769 ft | 251 kts | 353° |
| 2026-04-27 19:39 | -8.14860 | -35.04948 | 5509 ft | 250 kts | 353° |
| 2026-04-27 19:39 | -8.13142 | -35.05224 | 5258 ft | 249 kts | 353° |
| 2026-04-27 19:39 | -8.11434 | -35.05498 | 5008 ft | 248 kts | 353° |
| 2026-04-27 19:39 | -8.09730 | -35.05772 | 4758 ft | 247 kts | 353° |
| 2026-04-27 19:40 | -8.08036 | -35.06043 | 4507 ft | 246 kts | 353° |
| 2026-04-27 19:40 | -8.06345 | -35.06313 | 4252 ft | 246 kts | 353° |
| 2026-04-27 19:40 | -8.04664 | -35.06583 | 4038 ft | 242 kts | 353° |
| 2026-04-27 19:40 | -8.03022 | -35.06846 | 3799 ft | 236 kts | 353° |
| 2026-04-27 19:41 | -8.01446 | -35.07098 | 3746 ft | 221 kts | 353° |
| 2026-04-27 19:41 | -7.99973 | -35.07231 | 3691 ft | 207 kts | 12° |
| 2026-04-27 19:41 | -7.98727 | -35.06630 | 3700 ft | 197 kts | 46° |
| 2026-04-27 19:41 | -7.97947 | -35.05514 | 3708 ft | 197 kts | 70° |
| 2026-04-27 19:42 | -7.97474 | -35.04192 | 3641 ft | 203 kts | 74° |
| 2026-04-27 19:42 | -7.97032 | -35.02816 | 3325 ft | 209 kts | 74° |
| 2026-04-27 19:42 | -7.96597 | -35.01466 | 3208 ft | 197 kts | 74° |
| 2026-04-27 19:42 | -7.96190 | -35.00197 | 3141 ft | 182 kts | 77° |
| 2026-04-27 19:43 | -7.96287 | -34.99006 | 3108 ft | 173 kts | 123° |
| 2026-04-27 19:43 | -7.97199 | -34.98208 | 2979 ft | 178 kts | 145° |
| 2026-04-27 19:43 | -7.98193 | -34.97463 | 2742 ft | 177 kts | 146° |
| 2026-04-27 19:43 | -7.99257 | -34.96913 | 2519 ft | 166 kts | 154° |
| 2026-04-27 19:44 | -8.00264 | -34.96473 | 2335 ft | 150 kts | 157° |
| 2026-04-27 19:44 | -8.01225 | -34.96122 | 2129 ft | 146 kts | 159° |
| 2026-04-27 19:44 | -8.02185 | -34.95796 | 1927 ft | 144 kts | 160° |
| 2026-04-27 19:44 | -8.03127 | -34.95481 | 1737 ft | 142 kts | 160° |
| 2026-04-27 19:45 | -8.04067 | -34.95169 | 1552 ft | 142 kts | 160° |
| 2026-04-27 19:45 | -8.05002 | -34.94858 | 1365 ft | 141 kts | 160° |
| 2026-04-27 19:45 | -8.05931 | -34.94550 | 1171 ft | 140 kts | 160° |
| 2026-04-27 19:45 | -8.06853 | -34.94244 | 994 ft | 140 kts | 160° |
| 2026-04-27 19:46 | -8.07779 | -34.93936 | 806 ft | 140 kts | 161° |
| 2026-04-27 19:46 | -8.08705 | -34.93628 | 624 ft | 140 kts | 161° |
| 2026-04-27 19:46 | -8.09631 | -34.93317 | 421 ft | 141 kts | 160° |
| 2026-04-27 19:46 | -8.10562 | -34.93002 | 245 ft | 141 kts | 161° |
| 2026-04-27 19:47 | -8.11508 | -34.92687 | 53 ft | 144 kts | 161° |
| 2026-04-27 19:47 | -8.12357 | -34.92408 | 41 ft | 106 kts | 162° |
| 2026-04-27 19:47 | -8.12866 | -34.92240 | 40 ft | 58 kts | 162° |
| 2026-04-27 19:47 | -8.13154 | -34.92145 | 39 ft | 17 kts | 156° |
| 2026-04-27 19:48 | -8.13226 | -34.92089 | 39 ft | 12 kts | 134° |
| 2026-04-27 19:48 | -8.13282 | -34.92027 | 39 ft | 11 kts | 131° |
| 2026-04-27 19:48 | -8.13277 | -34.91978 | 38 ft | 8 kts | 37° |
| 2026-04-27 19:48 | -8.13219 | -34.91970 | 40 ft | 9 kts | 32° |
| 2026-04-27 19:49 | -8.13196 | -34.91918 | 40 ft | 3 kts | 71° |
| 2026-04-27 19:49 | -8.13196 | -34.91916 | 40 ft | 0 kts | 71° |